createdAt,value
2022-10-04T00:05:05.534Z,100.00
2022-10-04T00:10:36.128Z,100.00
2022-10-04T00:15:38.964Z,100.00
2022-10-04T00:20:49.160Z,100.00
2022-10-04T00:25:51.324Z,100.00
2022-10-04T00:31:14.440Z,100.00
2022-10-04T00:36:24.608Z,100.00
2022-10-04T00:41:28.411Z,100.00
2022-10-04T00:46:31.996Z,100.00
2022-10-04T00:52:01.733Z,100.00
2022-10-04T00:57:11.376Z,100.00
2022-10-04T01:02:15.494Z,100.00
2022-10-04T01:07:22.522Z,100.00
2022-10-04T01:12:50.276Z,100.00
2022-10-04T01:18:20.905Z,100.00
2022-10-04T01:23:37.967Z,100.00
2022-10-04T01:28:39.329Z,100.00
2022-10-04T01:33:40.724Z,100.00
2022-10-04T01:38:42.239Z,100.00
2022-10-04T01:43:50.323Z,100.00
2022-10-04T01:48:54.038Z,100.00
2022-10-04T01:54:09.712Z,100.00
2022-10-04T01:59:23.976Z,100.00
2022-10-04T02:04:33.224Z,100.00
2022-10-04T02:09:39.805Z,100.00
2022-10-04T02:14:47.385Z,100.00
2022-10-04T02:19:50.439Z,100.00
2022-10-04T02:24:54.802Z,100.00
2022-10-04T02:30:01.190Z,100.00
2022-10-04T02:35:03.904Z,100.00
2022-10-04T02:40:12.586Z,100.00
2022-10-04T02:45:31.623Z,100.00
2022-10-04T02:50:55.393Z,100.00
2022-10-04T02:55:58.373Z,100.00
2022-10-04T03:01:00.849Z,100.00
2022-10-04T03:06:07.212Z,100.00
2022-10-04T03:11:09.975Z,100.00
2022-10-04T03:16:11.538Z,100.00
2022-10-04T03:21:16.009Z,100.00
2022-10-04T03:26:30.618Z,100.00
2022-10-04T03:31:34.634Z,100.00
2022-10-04T03:36:36.130Z,100.00
2022-10-04T03:41:42.237Z,100.00
2022-10-04T03:46:45.332Z,100.00
2022-10-04T03:51:50.774Z,100.00
2022-10-04T03:56:52.456Z,100.00
2022-10-04T04:02:05.719Z,100.00
2022-10-04T04:07:13.024Z,100.00
2022-10-04T04:12:19.912Z,100.00
2022-10-04T04:17:27.346Z,100.00
2022-10-04T04:22:30.740Z,100.00
2022-10-04T04:27:37.006Z,100.00
2022-10-04T04:32:42.060Z,100.00
2022-10-04T04:37:43.456Z,100.00
2022-10-04T04:42:45.855Z,100.00
2022-10-04T04:47:53.183Z,100.00
2022-10-04T04:53:06.927Z,100.00
2022-10-04T04:58:12.828Z,100.00
2022-10-04T05:03:18.498Z,100.00
2022-10-04T05:08:23.293Z,100.00
2022-10-04T05:13:38.740Z,100.00
2022-10-04T05:18:40.280Z,100.00
2022-10-04T05:23:41.712Z,100.00
2022-10-04T05:28:43.115Z,100.00
2022-10-04T05:33:50.323Z,100.00
2022-10-04T05:39:41.912Z,100.00
2022-10-04T05:44:50.751Z,100.00
2022-10-04T05:49:57.853Z,100.00
2022-10-04T05:55:25.450Z,100.00
2022-10-04T06:00:42.572Z,100.00
2022-10-04T06:06:01.273Z,100.00
2022-10-04T06:11:11.797Z,100.00
2022-10-04T06:16:48.594Z,100.00
2022-10-04T06:21:49.957Z,100.00
2022-10-04T06:26:59.206Z,100.00
2022-10-04T06:32:22.299Z,100.00
2022-10-04T06:37:45.300Z,100.00
2022-10-04T06:42:49.847Z,100.00
2022-10-04T06:47:57.323Z,100.00
2022-10-04T06:53:22.653Z,100.00
2022-10-04T06:58:56.190Z,100.00
2022-10-04T07:04:00.572Z,100.00
2022-10-04T07:09:04.437Z,100.00
2022-10-04T07:14:15.405Z,100.00
2022-10-04T07:19:19.581Z,100.00
2022-10-04T07:24:49.616Z,100.00
2022-10-04T07:29:56.600Z,100.00
2022-10-04T07:35:04.222Z,97.72
2022-10-04T07:40:28.865Z,97.56
2022-10-04T07:45:33.975Z,95.58
2022-10-04T07:50:41.241Z,93.47
2022-10-04T07:56:00.719Z,92.79
2022-10-04T08:01:26.278Z,91.78
2022-10-04T08:06:44.467Z,93.16
2022-10-04T08:11:54.394Z,92.67
2022-10-04T08:17:15.198Z,91.81
2022-10-04T08:22:37.722Z,90.34
2022-10-04T08:27:53.220Z,88.77
2022-10-04T08:33:04.447Z,84.96
2022-10-04T08:38:22.677Z,83.26
2022-10-04T08:43:58.412Z,83.53
2022-10-04T08:49:44.357Z,80.54
2022-10-04T08:55:10.366Z,75.19
2022-10-04T09:00:18.389Z,71.55
2022-10-04T09:05:58.831Z,64.71
2022-10-04T09:11:18.998Z,62.47
2022-10-04T09:16:44.961Z,61.04
2022-10-04T09:21:46.514Z,57.27
2022-10-04T09:27:06.177Z,53.56
2022-10-04T09:32:21.543Z,51.17
2022-10-04T09:37:28.688Z,49.01
2022-10-04T09:42:51.309Z,47.15
2022-10-04T09:48:20.076Z,45.27
2022-10-04T09:53:40.199Z,44.44
2022-10-04T09:58:52.850Z,47.21
2022-10-04T10:04:10.422Z,46.25
2022-10-04T10:09:23.375Z,47.27
2022-10-04T10:14:54.395Z,48.96
2022-10-04T10:20:14.434Z,49.48
2022-10-04T10:26:02.680Z,51.75
2022-10-04T10:31:32.237Z,53.27
2022-10-04T10:37:07.661Z,56.85
2022-10-04T10:42:24.038Z,55.47
2022-10-04T10:47:52.555Z,54.50
2022-10-04T10:52:53.865Z,53.72
2022-10-04T10:58:10.417Z,53.13
2022-10-04T11:03:41.353Z,53.11
2022-10-04T11:09:04.588Z,52.98
2022-10-04T11:14:08.563Z,53.55
2022-10-04T11:19:34.386Z,57.57
2022-10-04T11:24:54.651Z,59.66
2022-10-04T11:30:16.220Z,63.57
2022-10-04T11:35:38.231Z,61.76
2022-10-04T11:40:49.752Z,60.07
2022-10-04T11:46:12.429Z,56.19
2022-10-04T11:51:32.838Z,53.28
2022-10-04T11:56:59.911Z,51.15
2022-10-04T12:02:30.526Z,50.09
2022-10-04T12:07:38.287Z,49.38
2022-10-04T12:13:04.451Z,48.51
2022-10-04T12:18:30.138Z,48.24
2022-10-04T12:24:02.598Z,48.67
2022-10-04T12:29:19.129Z,43.18
2022-10-04T12:34:44.839Z,43.29
2022-10-04T12:40:21.742Z,40.57
2022-10-04T12:45:30.757Z,38.56
2022-10-04T12:50:44.067Z,36.78
2022-10-04T12:55:59.609Z,34.32
2022-10-04T13:01:45.183Z,36.74
2022-10-04T13:07:10.577Z,35.95
2022-10-04T13:13:07.058Z,37.40
2022-10-04T13:18:42.366Z,37.27
2022-10-04T13:23:46.472Z,36.73
2022-10-04T13:29:14.463Z,36.96
2022-10-04T13:34:36.326Z,36.60
2022-10-04T13:40:02.180Z,38.60
2022-10-04T13:46:08.798Z,38.09
2022-10-04T13:51:19.185Z,38.66
2022-10-04T13:56:58.212Z,37.97
2022-10-04T14:02:26.476Z,39.84
2022-10-04T14:07:33.508Z,41.16
2022-10-04T14:12:37.746Z,43.65
2022-10-04T14:17:54.372Z,45.83
2022-10-04T14:23:17.688Z,47.30
2022-10-04T14:28:37.236Z,48.68
2022-10-04T14:34:15.626Z,50.78
2022-10-04T14:39:53.918Z,51.12
2022-10-04T14:45:17.104Z,51.46
2022-10-04T14:50:38.101Z,52.39
2022-10-04T14:56:02.872Z,52.89
2022-10-04T15:01:26.772Z,54.08
2022-10-04T15:06:47.252Z,54.70
2022-10-04T15:12:27.025Z,55.16
2022-10-04T15:17:32.917Z,55.04
2022-10-04T15:22:50.249Z,55.85
2022-10-04T15:27:56.580Z,57.39
2022-10-04T15:33:25.413Z,56.60
2022-10-04T15:38:56.059Z,56.32
2022-10-04T15:44:09.535Z,56.82
2022-10-04T15:49:37.351Z,58.67
2022-10-04T15:55:01.035Z,59.27
2022-10-04T16:00:11.443Z,61.02
2022-10-04T16:05:34.395Z,62.44
2022-10-04T16:11:20.539Z,63.66
2022-10-04T16:16:35.536Z,62.73
2022-10-04T16:22:15.703Z,63.26
2022-10-04T16:27:33.880Z,67.24
2022-10-04T16:33:04.967Z,70.58
2022-10-04T16:38:12.620Z,71.29
2022-10-04T16:43:16.991Z,73.26
2022-10-04T16:48:24.439Z,74.04
2022-10-04T16:53:44.075Z,74.34
2022-10-04T16:59:12.377Z,76.39
2022-10-04T17:04:38.206Z,77.84
2022-10-04T17:10:04.575Z,79.38
2022-10-04T17:15:05.898Z,81.36
2022-10-04T17:20:22.411Z,82.76
2022-10-04T17:25:59.159Z,84.49
2022-10-04T17:31:14.217Z,86.10
2022-10-04T17:36:28.608Z,86.83
2022-10-04T17:41:35.755Z,86.96
2022-10-04T17:46:54.424Z,87.76
2022-10-04T17:52:01.514Z,88.86
2022-10-04T17:57:02.874Z,88.45
2022-10-04T18:02:11.916Z,89.19
2022-10-04T18:07:47.517Z,85.48
2022-10-04T18:12:55.694Z,84.61
2022-10-04T18:18:14.806Z,83.72
2022-10-04T18:23:27.024Z,79.04
2022-10-04T18:28:28.648Z,76.31
2022-10-04T18:33:47.205Z,77.13
2022-10-04T18:39:13.350Z,78.64
2022-10-04T18:44:17.127Z,79.16
2022-10-04T18:49:24.241Z,79.91
2022-10-04T18:55:13.879Z,81.28
2022-10-04T19:00:15.540Z,82.36
2022-10-04T19:05:26.625Z,82.65
2022-10-04T19:10:44.046Z,83.78
2022-10-04T19:16:11.433Z,84.92
2022-10-04T19:21:47.242Z,86.04
2022-10-04T19:27:01.855Z,87.01
2022-10-04T19:32:44.664Z,87.64
2022-10-04T19:37:55.041Z,87.36
2022-10-04T19:43:25.217Z,84.76
2022-10-04T19:48:28.064Z,83.30
2022-10-04T19:53:38.552Z,84.15
2022-10-04T19:58:47.502Z,85.23
2022-10-04T20:03:49.240Z,86.24
2022-10-04T20:08:59.386Z,87.54
2022-10-04T20:14:03.110Z,88.56
2022-10-04T20:19:35.832Z,89.27
2022-10-04T20:24:37.117Z,90.17
2022-10-04T20:29:38.419Z,91.09
2022-10-04T20:34:39.683Z,91.83
2022-10-04T20:39:41.134Z,92.39
2022-10-04T20:44:46.772Z,93.16
2022-10-04T20:49:48.202Z,93.81
2022-10-04T20:54:53.164Z,94.89
2022-10-04T20:59:54.772Z,95.41
2022-10-04T21:05:12.736Z,96.37
2022-10-04T21:10:19.958Z,97.16
2022-10-04T21:15:22.534Z,97.93
2022-10-04T21:20:44.498Z,98.20
2022-10-04T21:25:45.887Z,98.73
2022-10-04T21:30:47.240Z,99.46
2022-10-04T21:35:52.129Z,99.90
2022-10-04T21:40:53.489Z,100.00
2022-10-04T21:45:54.906Z,100.00
2022-10-04T21:50:56.413Z,100.00
2022-10-04T21:55:57.843Z,100.00
2022-10-04T22:00:59.315Z,100.00
2022-10-04T22:06:00.887Z,100.00
2022-10-04T22:11:02.309Z,100.00
2022-10-04T22:16:04.609Z,100.00
2022-10-04T22:21:06.519Z,100.00
2022-10-04T22:26:15.083Z,100.00
2022-10-04T22:31:19.588Z,100.00
2022-10-04T22:36:29.931Z,100.00
2022-10-04T22:41:34.322Z,100.00
2022-10-04T22:46:41.871Z,100.00
2022-10-04T22:51:44.903Z,100.00
2022-10-04T22:56:47.111Z,100.00
2022-10-04T23:01:48.716Z,100.00
2022-10-04T23:06:51.350Z,100.00
2022-10-04T23:11:52.709Z,100.00
2022-10-04T23:16:54.162Z,100.00
2022-10-04T23:21:55.533Z,100.00
2022-10-04T23:26:56.922Z,100.00
2022-10-04T23:31:58.406Z,100.00
2022-10-04T23:36:59.949Z,100.00
2022-10-04T23:42:07.445Z,100.00
2022-10-04T23:47:15.140Z,100.00
2022-10-04T23:52:25.163Z,100.00
2022-10-04T23:57:29.099Z,100.00
